sensor_id;sensor_type;location;lat;lon;timestamp;temperature;humidity
31639;DHT22;18248;51.522;7.020;2023-05-10T00:01:54;15.40;99.90
31639;DHT22;18248;51.522;7.020;2023-05-10T00:04:52;15.40;99.90
31639;DHT22;18248;51.522;7.020;2023-05-10T00:07:51;15.30;99.90
31639;DHT22;18248;51.522;7.020;2023-05-10T00:10:49;15.30;99.90
31639;DHT22;18248;51.522;7.020;2023-05-10T00:13:48;15.30;99.90
31639;DHT22;18248;51.522;7.020;2023-05-10T00:16:46;15.30;99.90
31639;DHT22;18248;51.522;7.020;2023-05-10T00:19:45;15.30;99.90
31639;DHT22;18248;51.522;7.020;2023-05-10T00:22:43;15.30;99.90
31639;DHT22;18248;51.522;7.020;2023-05-10T00:25:42;15.30;99.90
31639;DHT22;18248;51.522;7.020;2023-05-10T00:28:41;15.30;99.90
31639;DHT22;18248;51.522;7.020;2023-05-10T00:31:39;15.30;99.90
31639;DHT22;18248;51.522;7.020;2023-05-10T00:34:38;15.30;99.90
31639;DHT22;18248;51.522;7.020;2023-05-10T00:37:36;15.40;99.90
31639;DHT22;18248;51.522;7.020;2023-05-10T00:40:36;15.40;99.90
31639;DHT22;18248;51.522;7.020;2023-05-10T00:43:35;15.30;99.90
31639;DHT22;18248;51.522;7.020;2023-05-10T00:46:34;15.30;99.90
31639;DHT22;18248;51.522;7.020;2023-05-10T00:49:33;15.30;99.90
31639;DHT22;18248;51.522;7.020;2023-05-10T00:52:32;15.30;99.90
31639;DHT22;18248;51.522;7.020;2023-05-10T00:55:31;15.20;99.90
31639;DHT22;18248;51.522;7.020;2023-05-10T00:58:30;15.20;99.90
31639;DHT22;18248;51.522;7.020;2023-05-10T01:01:29;15.20;99.90
31639;DHT22;18248;51.522;7.020;2023-05-10T01:04:29;15.20;99.90
31639;DHT22;18248;51.522;7.020;2023-05-10T01:07:29;15.20;99.90
31639;DHT22;18248;51.522;7.020;2023-05-10T01:10:29;15.20;99.90
31639;DHT22;18248;51.522;7.020;2023-05-10T01:13:31;15.20;99.90
31639;DHT22;18248;51.522;7.020;2023-05-10T01:16:35;15.20;99.90
31639;DHT22;18248;51.522;7.020;2023-05-10T01:19:34;15.20;99.90
31639;DHT22;18248;51.522;7.020;2023-05-10T01:23:57;15.10;99.90
31639;DHT22;18248;51.522;7.020;2023-05-10T01:26:39;15.10;99.90
31639;DHT22;18248;51.522;7.020;2023-05-10T01:33:19;15.00;99.90
31639;DHT22;18248;51.522;7.020;2023-05-10T01:36:32;15.00;99.90
31639;DHT22;18248;51.522;7.020;2023-05-10T01:39:45;15.00;99.90
31639;DHT22;18248;51.522;7.020;2023-05-10T01:42:52;15.00;99.90
31639;DHT22;18248;51.522;7.020;2023-05-10T01:46:14;15.00;99.90
31639;DHT22;18248;51.522;7.020;2023-05-10T01:49:23;14.90;99.90
31639;DHT22;18248;51.522;7.020;2023-05-10T01:52:47;14.90;99.90
31639;DHT22;18248;51.522;7.020;2023-05-10T01:55:51;14.90;99.90
31639;DHT22;18248;51.522;7.020;2023-05-10T01:58:51;14.90;99.90
31639;DHT22;18248;51.522;7.020;2023-05-10T02:01:52;14.80;99.90
31639;DHT22;18248;51.522;7.020;2023-05-10T02:04:52;14.90;99.90
31639;DHT22;18248;51.522;7.020;2023-05-10T02:07:53;14.80;99.90
31639;DHT22;18248;51.522;7.020;2023-05-10T02:10:56;14.80;99.90
31639;DHT22;18248;51.522;7.020;2023-05-10T02:13:55;14.80;99.90
31639;DHT22;18248;51.522;7.020;2023-05-10T02:16:56;14.90;99.90
31639;DHT22;18248;51.522;7.020;2023-05-10T02:19:56;14.80;99.90
31639;DHT22;18248;51.522;7.020;2023-05-10T02:22:57;14.90;99.90
31639;DHT22;18248;51.522;7.020;2023-05-10T02:25:57;14.90;99.90
31639;DHT22;18248;51.522;7.020;2023-05-10T02:28:57;14.80;99.90
31639;DHT22;18248;51.522;7.020;2023-05-10T02:31:57;14.80;99.90
31639;DHT22;18248;51.522;7.020;2023-05-10T02:34:57;14.80;99.90
31639;DHT22;18248;51.522;7.020;2023-05-10T02:37:58;14.80;99.90
31639;DHT22;18248;51.522;7.020;2023-05-10T02:40:57;14.80;99.90
31639;DHT22;18248;51.522;7.020;2023-05-10T02:43:59;14.80;99.90
31639;DHT22;18248;51.522;7.020;2023-05-10T02:46:58;14.80;99.90
31639;DHT22;18248;51.522;7.020;2023-05-10T02:49:58;14.70;99.90
31639;DHT22;18248;51.522;7.020;2023-05-10T02:53:00;14.80;99.90
31639;DHT22;18248;51.522;7.020;2023-05-10T02:56:04;14.80;99.90
31639;DHT22;18248;51.522;7.020;2023-05-10T02:59:05;14.80;99.90
31639;DHT22;18248;51.522;7.020;2023-05-10T03:02:03;14.80;99.90
31639;DHT22;18248;51.522;7.020;2023-05-10T03:05:04;14.80;99.90
31639;DHT22;18248;51.522;7.020;2023-05-10T03:08:03;14.70;99.90
31639;DHT22;18248;51.522;7.020;2023-05-10T03:11:28;14.70;99.90
31639;DHT22;18248;51.522;7.020;2023-05-10T03:15:03;14.70;99.90
31639;DHT22;18248;51.522;7.020;2023-05-10T03:18:12;14.70;99.90
31639;DHT22;18248;51.522;7.020;2023-05-10T03:21:12;14.70;99.90
31639;DHT22;18248;51.522;7.020;2023-05-10T03:24:12;14.70;99.90
31639;DHT22;18248;51.522;7.020;2023-05-10T03:27:16;14.70;99.90
31639;DHT22;18248;51.522;7.020;2023-05-10T03:30:15;14.70;99.90
31639;DHT22;18248;51.522;7.020;2023-05-10T03:33:15;14.70;99.90
31639;DHT22;18248;51.522;7.020;2023-05-10T03:36:14;14.70;99.90
31639;DHT22;18248;51.522;7.020;2023-05-10T03:39:13;14.70;99.90
31639;DHT22;18248;51.522;7.020;2023-05-10T03:42:11;14.70;99.90
31639;DHT22;18248;51.522;7.020;2023-05-10T03:45:11;14.70;99.90
31639;DHT22;18248;51.522;7.020;2023-05-10T03:48:10;14.70;99.90
31639;DHT22;18248;51.522;7.020;2023-05-10T03:51:08;14.70;99.90
31639;DHT22;18248;51.522;7.020;2023-05-10T03:54:07;14.80;99.90
31639;DHT22;18248;51.522;7.020;2023-05-10T03:57:05;14.70;99.90
31639;DHT22;18248;51.522;7.020;2023-05-10T04:00:06;14.70;99.90
31639;DHT22;18248;51.522;7.020;2023-05-10T04:03:06;14.70;99.90
31639;DHT22;18248;51.522;7.020;2023-05-10T04:06:05;14.70;99.90
31639;DHT22;18248;51.522;7.020;2023-05-10T04:09:03;14.70;99.90
31639;DHT22;18248;51.522;7.020;2023-05-10T04:12:02;14.60;99.90
31639;DHT22;18248;51.522;7.020;2023-05-10T04:15:01;14.70;99.90
31639;DHT22;18248;51.522;7.020;2023-05-10T04:17:59;14.70;99.90
31639;DHT22;18248;51.522;7.020;2023-05-10T04:20:58;14.70;99.90
31639;DHT22;18248;51.522;7.020;2023-05-10T04:23:57;14.80;99.90
31639;DHT22;18248;51.522;7.020;2023-05-10T04:26:56;14.70;99.90
31639;DHT22;18248;51.522;7.020;2023-05-10T04:29:55;14.80;99.90
31639;DHT22;18248;51.522;7.020;2023-05-10T04:32:53;14.80;99.90
31639;DHT22;18248;51.522;7.020;2023-05-10T04:35:52;14.80;99.90
31639;DHT22;18248;51.522;7.020;2023-05-10T04:38:50;14.80;99.90
31639;DHT22;18248;51.522;7.020;2023-05-10T04:41:49;14.90;99.90
31639;DHT22;18248;51.522;7.020;2023-05-10T04:44:47;14.90;99.90
31639;DHT22;18248;51.522;7.020;2023-05-10T04:47:46;14.90;99.90
31639;DHT22;18248;51.522;7.020;2023-05-10T04:50:44;14.80;99.90
31639;DHT22;18248;51.522;7.020;2023-05-10T04:53:43;14.80;99.90
31639;DHT22;18248;51.522;7.020;2023-05-10T04:56:41;14.80;99.90
31639;DHT22;18248;51.522;7.020;2023-05-10T04:59:40;14.90;99.90
31639;DHT22;18248;51.522;7.020;2023-05-10T05:02:42;14.80;99.90
31639;DHT22;18248;51.522;7.020;2023-05-10T05:05:41;14.80;99.90
31639;DHT22;18248;51.522;7.020;2023-05-10T05:08:40;14.80;99.90
31639;DHT22;18248;51.522;7.020;2023-05-10T05:11:39;14.80;99.90
31639;DHT22;18248;51.522;7.020;2023-05-10T05:14:38;14.80;99.90
31639;DHT22;18248;51.522;7.020;2023-05-10T05:17:37;14.80;99.90
31639;DHT22;18248;51.522;7.020;2023-05-10T05:20:35;14.90;99.90
31639;DHT22;18248;51.522;7.020;2023-05-10T05:23:34;14.90;99.90
31639;DHT22;18248;51.522;7.020;2023-05-10T05:26:34;14.90;99.90
31639;DHT22;18248;51.522;7.020;2023-05-10T05:29:33;14.90;99.90
31639;DHT22;18248;51.522;7.020;2023-05-10T05:32:31;14.90;99.90
31639;DHT22;18248;51.522;7.020;2023-05-10T05:35:30;14.90;99.90
31639;DHT22;18248;51.522;7.020;2023-05-10T05:38:28;14.90;99.90
31639;DHT22;18248;51.522;7.020;2023-05-10T05:41:27;15.00;99.90
31639;DHT22;18248;51.522;7.020;2023-05-10T05:44:25;15.00;99.90
31639;DHT22;18248;51.522;7.020;2023-05-10T05:47:26;15.00;99.90
31639;DHT22;18248;51.522;7.020;2023-05-10T05:50:24;15.00;99.90
31639;DHT22;18248;51.522;7.020;2023-05-10T05:53:23;15.10;99.90
31639;DHT22;18248;51.522;7.020;2023-05-10T05:56:23;15.10;99.90
31639;DHT22;18248;51.522;7.020;2023-05-10T05:59:22;15.10;99.90
31639;DHT22;18248;51.522;7.020;2023-05-10T06:02:21;15.10;99.90
31639;DHT22;18248;51.522;7.020;2023-05-10T06:05:19;15.10;99.90
31639;DHT22;18248;51.522;7.020;2023-05-10T06:08:19;15.10;99.90
31639;DHT22;18248;51.522;7.020;2023-05-10T06:11:18;15.20;99.90
31639;DHT22;18248;51.522;7.020;2023-05-10T06:14:17;15.20;99.90
31639;DHT22;18248;51.522;7.020;2023-05-10T06:17:15;15.20;99.90
31639;DHT22;18248;51.522;7.020;2023-05-10T06:20:14;15.20;99.90
31639;DHT22;18248;51.522;7.020;2023-05-10T06:23:13;15.20;99.90
31639;DHT22;18248;51.522;7.020;2023-05-10T06:26:12;15.20;99.90
31639;DHT22;18248;51.522;7.020;2023-05-10T06:29:11;15.30;99.90
31639;DHT22;18248;51.522;7.020;2023-05-10T06:32:13;15.40;99.90
31639;DHT22;18248;51.522;7.020;2023-05-10T06:35:12;15.40;99.90
31639;DHT22;18248;51.522;7.020;2023-05-10T06:38:10;15.40;99.90
31639;DHT22;18248;51.522;7.020;2023-05-10T06:41:09;15.60;99.90
31639;DHT22;18248;51.522;7.020;2023-05-10T06:44:08;15.60;99.90
31639;DHT22;18248;51.522;7.020;2023-05-10T06:47:06;15.70;99.90
31639;DHT22;18248;51.522;7.020;2023-05-10T06:50:06;15.80;99.90
31639;DHT22;18248;51.522;7.020;2023-05-10T06:53:04;15.80;99.90
31639;DHT22;18248;51.522;7.020;2023-05-10T06:56:03;15.80;99.90
31639;DHT22;18248;51.522;7.020;2023-05-10T06:59:02;15.90;99.90
31639;DHT22;18248;51.522;7.020;2023-05-10T07:02:01;16.10;99.90
31639;DHT22;18248;51.522;7.020;2023-05-10T07:04:59;16.20;99.90
31639;DHT22;18248;51.522;7.020;2023-05-10T07:08:00;16.40;99.90
31639;DHT22;18248;51.522;7.020;2023-05-10T07:11:03;16.90;99.90
31639;DHT22;18248;51.522;7.020;2023-05-10T07:14:02;17.30;99.90
31639;DHT22;18248;51.522;7.020;2023-05-10T07:17:00;17.50;99.90
31639;DHT22;18248;51.522;7.020;2023-05-10T07:20:01;17.50;99.90
31639;DHT22;18248;51.522;7.020;2023-05-10T07:22:59;17.40;99.90
31639;DHT22;18248;51.522;7.020;2023-05-10T07:25:58;17.30;99.90
31639;DHT22;18248;51.522;7.020;2023-05-10T07:28:57;17.50;99.90
31639;DHT22;18248;51.522;7.020;2023-05-10T07:31:57;17.50;99.90
31639;DHT22;18248;51.522;7.020;2023-05-10T07:34:55;17.50;99.90
31639;DHT22;18248;51.522;7.020;2023-05-10T07:37:54;17.40;99.90
31639;DHT22;18248;51.522;7.020;2023-05-10T07:40:52;17.20;99.90
31639;DHT22;18248;51.522;7.020;2023-05-10T07:43:51;17.20;99.90
31639;DHT22;18248;51.522;7.020;2023-05-10T07:46:50;17.30;99.90
31639;DHT22;18248;51.522;7.020;2023-05-10T07:49:49;17.40;99.90
31639;DHT22;18248;51.522;7.020;2023-05-10T07:52:47;17.40;99.90
31639;DHT22;18248;51.522;7.020;2023-05-10T07:55:58;17.40;99.90
31639;DHT22;18248;51.522;7.020;2023-05-10T07:58:58;17.20;99.90
31639;DHT22;18248;51.522;7.020;2023-05-10T08:01:56;17.10;99.90
31639;DHT22;18248;51.522;7.020;2023-05-10T08:04:55;17.00;99.90
31639;DHT22;18248;51.522;7.020;2023-05-10T08:07:54;17.00;99.90
31639;DHT22;18248;51.522;7.020;2023-05-10T08:10:53;17.00;99.90
31639;DHT22;18248;51.522;7.020;2023-05-10T08:13:52;16.90;99.90
31639;DHT22;18248;51.522;7.020;2023-05-10T08:16:51;17.00;99.90
31639;DHT22;18248;51.522;7.020;2023-05-10T08:19:49;17.00;99.90
31639;DHT22;18248;51.522;7.020;2023-05-10T08:22:48;16.90;99.90
31639;DHT22;18248;51.522;7.020;2023-05-10T08:25:48;16.90;99.90
31639;DHT22;18248;51.522;7.020;2023-05-10T08:28:46;17.00;99.90
31639;DHT22;18248;51.522;7.020;2023-05-10T08:31:45;17.00;99.90
31639;DHT22;18248;51.522;7.020;2023-05-10T08:34:43;17.10;99.90
31639;DHT22;18248;51.522;7.020;2023-05-10T08:37:42;17.10;99.90
31639;DHT22;18248;51.522;7.020;2023-05-10T08:40:44;17.10;99.90
31639;DHT22;18248;51.522;7.020;2023-05-10T08:43:44;17.00;99.90
31639;DHT22;18248;51.522;7.020;2023-05-10T08:46:46;16.90;99.90
31639;DHT22;18248;51.522;7.020;2023-05-10T08:49:47;16.90;99.90
31639;DHT22;18248;51.522;7.020;2023-05-10T08:52:51;17.10;99.90
31639;DHT22;18248;51.522;7.020;2023-05-10T08:55:51;17.30;99.90
31639;DHT22;18248;51.522;7.020;2023-05-10T08:58:50;17.40;99.90
31639;DHT22;18248;51.522;7.020;2023-05-10T09:01:50;17.60;99.90
31639;DHT22;18248;51.522;7.020;2023-05-10T09:04:48;17.80;99.90
31639;DHT22;18248;51.522;7.020;2023-05-10T09:07:48;18.10;99.90
31639;DHT22;18248;51.522;7.020;2023-05-10T09:10:48;18.60;99.90
31639;DHT22;18248;51.522;7.020;2023-05-10T09:13:48;19.00;99.90
31639;DHT22;18248;51.522;7.020;2023-05-10T09:16:49;19.10;99.90
31639;DHT22;18248;51.522;7.020;2023-05-10T09:19:47;19.30;99.90
31639;DHT22;18248;51.522;7.020;2023-05-10T09:22:46;19.40;99.90
31639;DHT22;18248;51.522;7.020;2023-05-10T09:25:45;19.50;99.90
31639;DHT22;18248;51.522;7.020;2023-05-10T09:31:51;19.20;99.90
31639;DHT22;18248;51.522;7.020;2023-05-10T09:34:50;19.00;99.90
31639;DHT22;18248;51.522;7.020;2023-05-10T09:37:51;18.70;99.90
31639;DHT22;18248;51.522;7.020;2023-05-10T09:40:52;18.60;99.90
31639;DHT22;18248;51.522;7.020;2023-05-10T09:43:56;18.50;99.90
31639;DHT22;18248;51.522;7.020;2023-05-10T09:46:54;18.50;99.90
31639;DHT22;18248;51.522;7.020;2023-05-10T09:49:53;18.40;99.90
31639;DHT22;18248;51.522;7.020;2023-05-10T09:52:58;18.40;99.90
31639;DHT22;18248;51.522;7.020;2023-05-10T09:55:57;18.30;99.90
31639;DHT22;18248;51.522;7.020;2023-05-10T09:59:02;18.20;99.90
31639;DHT22;18248;51.522;7.020;2023-05-10T10:02:01;18.10;99.90
31639;DHT22;18248;51.522;7.020;2023-05-10T10:05:01;18.10;99.90
31639;DHT22;18248;51.522;7.020;2023-05-10T10:08:04;18.10;99.90
31639;DHT22;18248;51.522;7.020;2023-05-10T10:11:03;18.00;99.90
31639;DHT22;18248;51.522;7.020;2023-05-10T10:14:01;18.00;99.90
31639;DHT22;18248;51.522;7.020;2023-05-10T10:17:00;17.80;99.90
31639;DHT22;18248;51.522;7.020;2023-05-10T10:19:59;17.80;99.90
31639;DHT22;18248;51.522;7.020;2023-05-10T10:22:58;17.70;99.90
31639;DHT22;18248;51.522;7.020;2023-05-10T10:25:56;17.70;99.90
31639;DHT22;18248;51.522;7.020;2023-05-10T10:29:25;17.70;99.90
31639;DHT22;18248;51.522;7.020;2023-05-10T10:32:44;17.60;99.90
31639;DHT22;18248;51.522;7.020;2023-05-10T10:35:53;17.60;99.90
31639;DHT22;18248;51.522;7.020;2023-05-10T10:38:56;17.80;99.90
31639;DHT22;18248;51.522;7.020;2023-05-10T10:41:58;17.90;99.90
31639;DHT22;18248;51.522;7.020;2023-05-10T10:45:12;17.90;99.90
31639;DHT22;18248;51.522;7.020;2023-05-10T10:48:23;18.00;99.90
31639;DHT22;18248;51.522;7.020;2023-05-10T10:51:22;18.00;99.90
31639;DHT22;18248;51.522;7.020;2023-05-10T10:54:28;17.90;99.90
31639;DHT22;18248;51.522;7.020;2023-05-10T10:57:27;17.80;99.90
31639;DHT22;18248;51.522;7.020;2023-05-10T11:00:32;17.70;99.90
31639;DHT22;18248;51.522;7.020;2023-05-10T11:03:31;17.70;99.90
31639;DHT22;18248;51.522;7.020;2023-05-10T11:06:30;17.60;99.90
31639;DHT22;18248;51.522;7.020;2023-05-10T11:09:39;17.60;99.90
31639;DHT22;18248;51.522;7.020;2023-05-10T11:13:00;17.50;99.90
31639;DHT22;18248;51.522;7.020;2023-05-10T11:16:22;17.40;99.90
31639;DHT22;18248;51.522;7.020;2023-05-10T11:19:27;17.30;99.90
31639;DHT22;18248;51.522;7.020;2023-05-10T11:22:26;17.30;99.90
31639;DHT22;18248;51.522;7.020;2023-05-10T11:25:27;17.30;99.90
31639;DHT22;18248;51.522;7.020;2023-05-10T11:28:26;17.50;99.90
31639;DHT22;18248;51.522;7.020;2023-05-10T11:31:25;17.60;99.90
31639;DHT22;18248;51.522;7.020;2023-05-10T11:34:30;17.70;99.90
31639;DHT22;18248;51.522;7.020;2023-05-10T11:37:31;17.80;99.90
31639;DHT22;18248;51.522;7.020;2023-05-10T11:40:32;17.70;99.90
31639;DHT22;18248;51.522;7.020;2023-05-10T11:43:31;17.70;99.90
31639;DHT22;18248;51.522;7.020;2023-05-10T11:46:30;17.80;99.90
31639;DHT22;18248;51.522;7.020;2023-05-10T11:49:29;17.70;99.90
31639;DHT22;18248;51.522;7.020;2023-05-10T11:52:27;17.80;99.90
31639;DHT22;18248;51.522;7.020;2023-05-10T11:55:27;17.90;99.90
31639;DHT22;18248;51.522;7.020;2023-05-10T11:58:25;17.90;99.90
31639;DHT22;18248;51.522;7.020;2023-05-10T12:01:26;17.80;99.90
31639;DHT22;18248;51.522;7.020;2023-05-10T12:04:25;17.70;99.90
31639;DHT22;18248;51.522;7.020;2023-05-10T12:07:26;17.70;99.90
31639;DHT22;18248;51.522;7.020;2023-05-10T12:10:26;17.80;99.90
31639;DHT22;18248;51.522;7.020;2023-05-10T12:13:25;17.90;99.90
31639;DHT22;18248;51.522;7.020;2023-05-10T12:16:25;17.90;99.90
31639;DHT22;18248;51.522;7.020;2023-05-10T12:19:26;17.90;99.90
31639;DHT22;18248;51.522;7.020;2023-05-10T12:22:24;18.00;99.90
31639;DHT22;18248;51.522;7.020;2023-05-10T12:25:24;17.90;99.90
31639;DHT22;18248;51.522;7.020;2023-05-10T12:28:30;17.80;99.90
31639;DHT22;18248;51.522;7.020;2023-05-10T12:31:29;17.70;99.90
31639;DHT22;18248;51.522;7.020;2023-05-10T12:34:35;17.70;99.90
31639;DHT22;18248;51.522;7.020;2023-05-10T12:37:34;17.70;99.90
31639;DHT22;18248;51.522;7.020;2023-05-10T12:40:37;17.70;99.90
31639;DHT22;18248;51.522;7.020;2023-05-10T12:43:36;17.70;99.90
31639;DHT22;18248;51.522;7.020;2023-05-10T12:46:35;17.80;99.90
31639;DHT22;18248;51.522;7.020;2023-05-10T12:49:33;18.00;99.90
31639;DHT22;18248;51.522;7.020;2023-05-10T12:52:32;18.20;99.90
31639;DHT22;18248;51.522;7.020;2023-05-10T12:55:31;18.30;99.90
31639;DHT22;18248;51.522;7.020;2023-05-10T12:58:29;18.30;99.90
31639;DHT22;18248;51.522;7.020;2023-05-10T13:01:29;18.50;99.90
31639;DHT22;18248;51.522;7.020;2023-05-10T13:04:28;18.60;99.90
31639;DHT22;18248;51.522;7.020;2023-05-10T13:07:26;18.80;99.90
31639;DHT22;18248;51.522;7.020;2023-05-10T13:10:25;19.00;99.90
31639;DHT22;18248;51.522;7.020;2023-05-10T13:13:24;19.10;99.90
31639;DHT22;18248;51.522;7.020;2023-05-10T13:16:22;19.20;99.90
31639;DHT22;18248;51.522;7.020;2023-05-10T13:19:21;19.40;99.90
31639;DHT22;18248;51.522;7.020;2023-05-10T13:22:19;19.40;99.90
31639;DHT22;18248;51.522;7.020;2023-05-10T13:25:18;19.50;99.90
31639;DHT22;18248;51.522;7.020;2023-05-10T13:28:17;19.60;99.90
31639;DHT22;18248;51.522;7.020;2023-05-10T13:31:15;19.70;99.90
31639;DHT22;18248;51.522;7.020;2023-05-10T13:34:14;19.90;99.90
31639;DHT22;18248;51.522;7.020;2023-05-10T13:37:12;20.10;99.90
31639;DHT22;18248;51.522;7.020;2023-05-10T13:40:11;20.40;99.90
31639;DHT22;18248;51.522;7.020;2023-05-10T13:43:09;20.70;99.90
31639;DHT22;18248;51.522;7.020;2023-05-10T13:46:08;20.90;99.90
31639;DHT22;18248;51.522;7.020;2023-05-10T13:49:06;21.00;99.90
31639;DHT22;18248;51.522;7.020;2023-05-10T13:52:05;21.30;99.90
31639;DHT22;18248;51.522;7.020;2023-05-10T13:55:08;21.10;99.90
31639;DHT22;18248;51.522;7.020;2023-05-10T13:58:06;21.00;99.90
31639;DHT22;18248;51.522;7.020;2023-05-10T14:01:05;20.70;99.90
31639;DHT22;18248;51.522;7.020;2023-05-10T14:04:04;20.70;99.90
31639;DHT22;18248;51.522;7.020;2023-05-10T14:07:02;20.70;99.90
31639;DHT22;18248;51.522;7.020;2023-05-10T14:10:01;20.80;99.90
31639;DHT22;18248;51.522;7.020;2023-05-10T14:12:59;21.00;99.90
31639;DHT22;18248;51.522;7.020;2023-05-10T14:15:58;21.30;99.90
31639;DHT22;18248;51.522;7.020;2023-05-10T14:18:58;21.50;99.90
31639;DHT22;18248;51.522;7.020;2023-05-10T14:21:57;21.40;99.90
31639;DHT22;18248;51.522;7.020;2023-05-10T14:24:56;21.50;99.90
31639;DHT22;18248;51.522;7.020;2023-05-10T14:27:55;21.50;99.90
31639;DHT22;18248;51.522;7.020;2023-05-10T14:30:54;21.70;99.90
31639;DHT22;18248;51.522;7.020;2023-05-10T14:33:53;21.70;99.90
31639;DHT22;18248;51.522;7.020;2023-05-10T14:36:51;21.60;99.90
31639;DHT22;18248;51.522;7.020;2023-05-10T14:39:50;21.50;99.90
31639;DHT22;18248;51.522;7.020;2023-05-10T14:42:49;21.30;99.90
31639;DHT22;18248;51.522;7.020;2023-05-10T14:45:48;21.30;99.90
31639;DHT22;18248;51.522;7.020;2023-05-10T14:48:46;21.50;99.90
31639;DHT22;18248;51.522;7.020;2023-05-10T14:51:45;21.60;99.90
31639;DHT22;18248;51.522;7.020;2023-05-10T14:54:43;21.50;99.90
31639;DHT22;18248;51.522;7.020;2023-05-10T14:57:43;21.40;99.90
31639;DHT22;18248;51.522;7.020;2023-05-10T15:00:45;21.30;99.90
31639;DHT22;18248;51.522;7.020;2023-05-10T15:03:44;21.20;99.90
31639;DHT22;18248;51.522;7.020;2023-05-10T15:06:43;21.10;99.90
31639;DHT22;18248;51.522;7.020;2023-05-10T15:09:41;21.10;99.90
31639;DHT22;18248;51.522;7.020;2023-05-10T15:12:40;21.00;99.90
31639;DHT22;18248;51.522;7.020;2023-05-10T15:15:39;21.00;99.90
31639;DHT22;18248;51.522;7.020;2023-05-10T15:18:37;21.00;99.90
31639;DHT22;18248;51.522;7.020;2023-05-10T15:21:36;21.10;99.90
31639;DHT22;18248;51.522;7.020;2023-05-10T15:24:37;21.20;99.90
31639;DHT22;18248;51.522;7.020;2023-05-10T15:27:35;21.10;99.90
31639;DHT22;18248;51.522;7.020;2023-05-10T15:30:34;21.00;99.90
31639;DHT22;18248;51.522;7.020;2023-05-10T15:33:33;20.80;99.90
31639;DHT22;18248;51.522;7.020;2023-05-10T15:36:32;20.60;99.90
31639;DHT22;18248;51.522;7.020;2023-05-10T15:39:32;20.60;99.90
31639;DHT22;18248;51.522;7.020;2023-05-10T15:42:31;20.50;99.90
31639;DHT22;18248;51.522;7.020;2023-05-10T15:45:30;20.40;99.90
31639;DHT22;18248;51.522;7.020;2023-05-10T15:48:28;20.30;99.90
31639;DHT22;18248;51.522;7.020;2023-05-10T15:51:29;20.20;99.90
31639;DHT22;18248;51.522;7.020;2023-05-10T15:54:28;20.20;99.90
31639;DHT22;18248;51.522;7.020;2023-05-10T15:57:26;20.20;99.90
31639;DHT22;18248;51.522;7.020;2023-05-10T16:00:25;20.20;99.90
31639;DHT22;18248;51.522;7.020;2023-05-10T16:03:23;20.10;99.90
31639;DHT22;18248;51.522;7.020;2023-05-10T16:06:22;20.00;99.90
31639;DHT22;18248;51.522;7.020;2023-05-10T16:09:21;19.80;99.90
31639;DHT22;18248;51.522;7.020;2023-05-10T16:12:21;19.80;99.90
31639;DHT22;18248;51.522;7.020;2023-05-10T16:15:19;19.70;99.90
31639;DHT22;18248;51.522;7.020;2023-05-10T16:18:19;19.60;99.90
31639;DHT22;18248;51.522;7.020;2023-05-10T16:21:17;19.40;99.90
31639;DHT22;18248;51.522;7.020;2023-05-10T16:24:17;19.30;99.90
31639;DHT22;18248;51.522;7.020;2023-05-10T16:27:16;19.30;99.90
31639;DHT22;18248;51.522;7.020;2023-05-10T16:30:15;19.10;99.90
31639;DHT22;18248;51.522;7.020;2023-05-10T16:33:15;18.90;99.90
31639;DHT22;18248;51.522;7.020;2023-05-10T16:36:13;18.80;99.90
31639;DHT22;18248;51.522;7.020;2023-05-10T16:39:12;18.60;99.90
31639;DHT22;18248;51.522;7.020;2023-05-10T16:42:11;18.50;99.90
31639;DHT22;18248;51.522;7.020;2023-05-10T16:45:09;18.20;99.90
31639;DHT22;18248;51.522;7.020;2023-05-10T16:48:10;18.00;99.90
31639;DHT22;18248;51.522;7.020;2023-05-10T16:51:09;17.80;99.90
31639;DHT22;18248;51.522;7.020;2023-05-10T16:54:07;17.70;99.90
31639;DHT22;18248;51.522;7.020;2023-05-10T16:57:07;17.50;99.90
31639;DHT22;18248;51.522;7.020;2023-05-10T17:00:06;17.50;99.90
31639;DHT22;18248;51.522;7.020;2023-05-10T17:03:05;17.50;99.90
31639;DHT22;18248;51.522;7.020;2023-05-10T17:06:04;17.50;99.90
31639;DHT22;18248;51.522;7.020;2023-05-10T17:09:03;17.40;99.90
31639;DHT22;18248;51.522;7.020;2023-05-10T17:12:02;17.50;99.90
31639;DHT22;18248;51.522;7.020;2023-05-10T17:15:01;17.60;99.90
31639;DHT22;18248;51.522;7.020;2023-05-10T17:18:00;17.60;99.90
31639;DHT22;18248;51.522;7.020;2023-05-10T17:20:58;17.70;99.90
31639;DHT22;18248;51.522;7.020;2023-05-10T17:23:57;17.70;99.90
31639;DHT22;18248;51.522;7.020;2023-05-10T17:26:55;17.70;99.90
31639;DHT22;18248;51.522;7.020;2023-05-10T17:29:58;17.80;99.90
31639;DHT22;18248;51.522;7.020;2023-05-10T17:32:59;17.70;99.90
31639;DHT22;18248;51.522;7.020;2023-05-10T17:35:58;17.70;99.90
31639;DHT22;18248;51.522;7.020;2023-05-10T17:38:56;17.50;99.90
31639;DHT22;18248;51.522;7.020;2023-05-10T17:41:55;17.50;99.90
31639;DHT22;18248;51.522;7.020;2023-05-10T17:44:54;17.40;99.90
31639;DHT22;18248;51.522;7.020;2023-05-10T17:47:53;17.40;99.90
31639;DHT22;18248;51.522;7.020;2023-05-10T17:50:51;17.40;99.90
31639;DHT22;18248;51.522;7.020;2023-05-10T17:53:50;17.40;99.90
31639;DHT22;18248;51.522;7.020;2023-05-10T17:56:49;17.30;99.90
31639;DHT22;18248;51.522;7.020;2023-05-10T17:59:47;17.30;99.90
31639;DHT22;18248;51.522;7.020;2023-05-10T18:02:46;17.20;99.90
31639;DHT22;18248;51.522;7.020;2023-05-10T18:05:46;17.20;99.90
31639;DHT22;18248;51.522;7.020;2023-05-10T18:08:44;17.20;99.90
31639;DHT22;18248;51.522;7.020;2023-05-10T18:11:43;17.20;99.90
31639;DHT22;18248;51.522;7.020;2023-05-10T18:14:41;17.20;99.90
31639;DHT22;18248;51.522;7.020;2023-05-10T18:17:40;17.20;99.90
31639;DHT22;18248;51.522;7.020;2023-05-10T18:20:38;17.10;99.90
31639;DHT22;18248;51.522;7.020;2023-05-10T18:23:38;17.20;99.90
31639;DHT22;18248;51.522;7.020;2023-05-10T18:26:36;17.20;99.90
31639;DHT22;18248;51.522;7.020;2023-05-10T18:29:35;17.20;99.90
31639;DHT22;18248;51.522;7.020;2023-05-10T18:32:34;17.20;99.90
31639;DHT22;18248;51.522;7.020;2023-05-10T18:35:32;17.10;99.90
31639;DHT22;18248;51.522;7.020;2023-05-10T18:38:34;17.10;99.90
31639;DHT22;18248;51.522;7.020;2023-05-10T18:41:33;17.10;99.90
31639;DHT22;18248;51.522;7.020;2023-05-10T18:44:31;17.00;99.90
31639;DHT22;18248;51.522;7.020;2023-05-10T18:47:30;17.00;99.90
31639;DHT22;18248;51.522;7.020;2023-05-10T18:50:28;16.90;99.90
31639;DHT22;18248;51.522;7.020;2023-05-10T18:53:27;16.90;99.90
31639;DHT22;18248;51.522;7.020;2023-05-10T18:56:25;16.80;99.90
31639;DHT22;18248;51.522;7.020;2023-05-10T18:59:24;16.80;99.90
31639;DHT22;18248;51.522;7.020;2023-05-10T19:02:22;16.80;99.90
31639;DHT22;18248;51.522;7.020;2023-05-10T19:05:23;16.80;99.90